sensor_id;sensor_type;location;lat;lon;timestamp;P1;durP1;ratioP1;P2;durP2;ratioP2
27293;SDS011;14785;52.556;13.430;2022-08-04T00:05:07;8.32;;;6.40;;
27293;SDS011;14785;52.556;13.430;2022-08-04T00:07:48;9.60;;;6.43;;
27293;SDS011;14785;52.556;13.430;2022-08-04T00:10:22;11.65;;;6.85;;
27293;SDS011;14785;52.556;13.430;2022-08-04T00:12:51;10.40;;;6.07;;
27293;SDS011;14785;52.556;13.430;2022-08-04T00:15:19;12.38;;;6.95;;
27293;SDS011;14785;52.556;13.430;2022-08-04T00:17:58;13.73;;;7.05;;
27293;SDS011;14785;52.556;13.430;2022-08-04T00:20:32;8.43;;;6.22;;
27293;SDS011;14785;52.556;13.430;2022-08-04T00:22:59;14.63;;;7.53;;
27293;SDS011;14785;52.556;13.430;2022-08-04T00:25:26;11.57;;;6.90;;
27293;SDS011;14785;52.556;13.430;2022-08-04T00:30:18;9.73;;;6.72;;
27293;SDS011;14785;52.556;13.430;2022-08-04T00:32:43;12.40;;;8.20;;
27293;SDS011;14785;52.556;13.430;2022-08-04T00:35:09;9.00;;;6.45;;
27293;SDS011;14785;52.556;13.430;2022-08-04T00:37:37;8.00;;;5.75;;
27293;SDS011;14785;52.556;13.430;2022-08-04T00:40:09;9.45;;;5.90;;
27293;SDS011;14785;52.556;13.430;2022-08-04T00:43:18;10.13;;;6.47;;
27293;SDS011;14785;52.556;13.430;2022-08-04T00:51:47;13.35;;;8.85;;
27293;SDS011;14785;52.556;13.430;2022-08-04T00:54:29;11.93;;;6.68;;
27293;SDS011;14785;52.556;13.430;2022-08-04T01:00:02;10.10;;;6.38;;
27293;SDS011;14785;52.556;13.430;2022-08-04T01:16:15;10.45;;;5.97;;
27293;SDS011;14785;52.556;13.430;2022-08-04T01:21:29;7.93;;;5.15;;
27293;SDS011;14785;52.556;13.430;2022-08-04T01:29:27;10.65;;;5.88;;
27293;SDS011;14785;52.556;13.430;2022-08-04T01:32:02;32.72;;;25.08;;
27293;SDS011;14785;52.556;13.430;2022-08-04T01:34:41;17.70;;;10.93;;
27293;SDS011;14785;52.556;13.430;2022-08-04T01:37:29;23.77;;;16.73;;
27293;SDS011;14785;52.556;13.430;2022-08-04T01:40:06;15.70;;;12.70;;
27293;SDS011;14785;52.556;13.430;2022-08-04T01:42:33;13.43;;;8.05;;
27293;SDS011;14785;52.556;13.430;2022-08-04T01:45:04;12.93;;;6.70;;
27293;SDS011;14785;52.556;13.430;2022-08-04T01:47:33;9.88;;;6.38;;
27293;SDS011;14785;52.556;13.430;2022-08-04T01:50:02;10.45;;;6.40;;
27293;SDS011;14785;52.556;13.430;2022-08-04T01:52:30;16.33;;;6.25;;
27293;SDS011;14785;52.556;13.430;2022-08-04T01:54:57;10.32;;;5.68;;
27293;SDS011;14785;52.556;13.430;2022-08-04T01:57:26;9.10;;;5.88;;
27293;SDS011;14785;52.556;13.430;2022-08-04T01:59:53;8.60;;;5.88;;
27293;SDS011;14785;52.556;13.430;2022-08-04T02:02:22;12.20;;;6.07;;
27293;SDS011;14785;52.556;13.430;2022-08-04T02:04:48;9.60;;;5.95;;
27293;SDS011;14785;52.556;13.430;2022-08-04T02:09:43;8.20;;;5.70;;
27293;SDS011;14785;52.556;13.430;2022-08-04T02:12:47;10.20;;;6.82;;
27293;SDS011;14785;52.556;13.430;2022-08-04T02:15:41;7.40;;;5.25;;
27293;SDS011;14785;52.556;13.430;2022-08-04T02:21:33;12.70;;;6.20;;
27293;SDS011;14785;52.556;13.430;2022-08-04T02:24:00;13.15;;;6.38;;
27293;SDS011;14785;52.556;13.430;2022-08-04T02:26:37;18.63;;;7.18;;
27293;SDS011;14785;52.556;13.430;2022-08-04T02:31:38;9.35;;;4.95;;
27293;SDS011;14785;52.556;13.430;2022-08-04T02:37:02;8.02;;;5.15;;
27293;SDS011;14785;52.556;13.430;2022-08-04T02:39:30;13.25;;;9.15;;
27293;SDS011;14785;52.556;13.430;2022-08-04T02:41:58;13.63;;;7.03;;
27293;SDS011;14785;52.556;13.430;2022-08-04T02:44:27;7.35;;;4.90;;
27293;SDS011;14785;52.556;13.430;2022-08-04T02:46:54;9.48;;;5.93;;
27293;SDS011;14785;52.556;13.430;2022-08-04T02:51:49;9.93;;;6.10;;
27293;SDS011;14785;52.556;13.430;2022-08-04T02:54:16;10.80;;;6.80;;
27293;SDS011;14785;52.556;13.430;2022-08-04T02:56:43;12.40;;;8.00;;
27293;SDS011;14785;52.556;13.430;2022-08-04T02:59:10;10.75;;;5.80;;
27293;SDS011;14785;52.556;13.430;2022-08-04T03:01:37;10.82;;;5.35;;
27293;SDS011;14785;52.556;13.430;2022-08-04T03:14:58;10.33;;;5.53;;
27293;SDS011;14785;52.556;13.430;2022-08-04T03:34:39;13.45;;;6.20;;
27293;SDS011;14785;52.556;13.430;2022-08-04T03:43:17;10.77;;;5.85;;
27293;SDS011;14785;52.556;13.430;2022-08-04T03:45:53;17.00;;;5.93;;
27293;SDS011;14785;52.556;13.430;2022-08-04T03:59:56;8.68;;;6.00;;
27293;SDS011;14785;52.556;13.430;2022-08-04T04:02:36;9.25;;;5.75;;
27293;SDS011;14785;52.556;13.430;2022-08-04T04:08:16;10.63;;;5.75;;
27293;SDS011;14785;52.556;13.430;2022-08-04T04:13:41;8.63;;;5.22;;
27293;SDS011;14785;52.556;13.430;2022-08-04T04:21:57;11.38;;;5.32;;
27293;SDS011;14785;52.556;13.430;2022-08-04T04:24:38;9.95;;;5.80;;
27293;SDS011;14785;52.556;13.430;2022-08-04T04:30:07;11.93;;;6.72;;
27293;SDS011;14785;52.556;13.430;2022-08-04T04:41:24;19.58;;;7.55;;
27293;SDS011;14785;52.556;13.430;2022-08-04T04:47:15;10.10;;;6.22;;
27293;SDS011;14785;52.556;13.430;2022-08-04T04:52:37;13.15;;;6.85;;
27293;SDS011;14785;52.556;13.430;2022-08-04T04:55:09;11.43;;;7.03;;
27293;SDS011;14785;52.556;13.430;2022-08-04T04:57:42;9.80;;;5.75;;
27293;SDS011;14785;52.556;13.430;2022-08-04T05:00:10;12.57;;;5.90;;
27293;SDS011;14785;52.556;13.430;2022-08-04T05:02:56;8.40;;;6.35;;
27293;SDS011;14785;52.556;13.430;2022-08-04T05:05:36;11.15;;;5.72;;
27293;SDS011;14785;52.556;13.430;2022-08-04T05:08:26;9.32;;;6.60;;
27293;SDS011;14785;52.556;13.430;2022-08-04T05:13:43;9.13;;;5.70;;
27293;SDS011;14785;52.556;13.430;2022-08-04T05:16:16;10.32;;;6.50;;
27293;SDS011;14785;52.556;13.430;2022-08-04T05:18:46;14.32;;;6.60;;
27293;SDS011;14785;52.556;13.430;2022-08-04T05:21:58;9.00;;;5.95;;
27293;SDS011;14785;52.556;13.430;2022-08-04T05:24:10;9.40;;;5.90;;
27293;SDS011;14785;52.556;13.430;2022-08-04T05:26:42;8.75;;;4.90;;
27293;SDS011;14785;52.556;13.430;2022-08-04T05:29:10;8.43;;;6.15;;
27293;SDS011;14785;52.556;13.430;2022-08-04T05:31:42;11.15;;;6.05;;
27293;SDS011;14785;52.556;13.430;2022-08-04T05:34:14;8.90;;;5.65;;
27293;SDS011;14785;52.556;13.430;2022-08-04T05:36:46;13.35;;;6.18;;
27293;SDS011;14785;52.556;13.430;2022-08-04T05:39:16;10.73;;;6.68;;
27293;SDS011;14785;52.556;13.430;2022-08-04T05:41:45;9.05;;;5.70;;
27293;SDS011;14785;52.556;13.430;2022-08-04T05:46:39;8.32;;;6.43;;
27293;SDS011;14785;52.556;13.430;2022-08-04T05:49:06;15.90;;;6.47;;
27293;SDS011;14785;52.556;13.430;2022-08-04T05:51:33;11.93;;;5.90;;
27293;SDS011;14785;52.556;13.430;2022-08-04T05:53:59;13.52;;;6.38;;
27293;SDS011;14785;52.556;13.430;2022-08-04T05:56:26;12.48;;;6.05;;
27293;SDS011;14785;52.556;13.430;2022-08-04T05:58:53;12.02;;;6.68;;
27293;SDS011;14785;52.556;13.430;2022-08-04T06:01:19;11.73;;;5.43;;
27293;SDS011;14785;52.556;13.430;2022-08-04T06:06:12;12.40;;;6.45;;
27293;SDS011;14785;52.556;13.430;2022-08-04T06:08:39;14.10;;;6.43;;
27293;SDS011;14785;52.556;13.430;2022-08-04T06:11:05;12.87;;;6.33;;
27293;SDS011;14785;52.556;13.430;2022-08-04T06:13:36;18.85;;;5.78;;
27293;SDS011;14785;52.556;13.430;2022-08-04T06:16:06;11.35;;;6.05;;
27293;SDS011;14785;52.556;13.430;2022-08-04T06:21:00;14.57;;;6.50;;
27293;SDS011;14785;52.556;13.430;2022-08-04T06:23:27;17.10;;;5.90;;
27293;SDS011;14785;52.556;13.430;2022-08-04T06:25:56;10.35;;;5.78;;
27293;SDS011;14785;52.556;13.430;2022-08-04T06:28:25;15.07;;;6.28;;
27293;SDS011;14785;52.556;13.430;2022-08-04T06:30:53;11.77;;;5.65;;
27293;SDS011;14785;52.556;13.430;2022-08-04T06:33:19;8.30;;;5.40;;
27293;SDS011;14785;52.556;13.430;2022-08-04T06:35:57;18.70;;;6.50;;
27293;SDS011;14785;52.556;13.430;2022-08-04T06:38:24;15.65;;;6.47;;
27293;SDS011;14785;52.556;13.430;2022-08-04T06:40:52;16.42;;;6.47;;
27293;SDS011;14785;52.556;13.430;2022-08-04T06:43:19;11.80;;;6.50;;
27293;SDS011;14785;52.556;13.430;2022-08-04T06:45:46;13.93;;;5.75;;
27293;SDS011;14785;52.556;13.430;2022-08-04T06:48:13;16.48;;;5.50;;
27293;SDS011;14785;52.556;13.430;2022-08-04T06:50:40;13.15;;;5.75;;
27293;SDS011;14785;52.556;13.430;2022-08-04T06:53:09;14.10;;;6.40;;
27293;SDS011;14785;52.556;13.430;2022-08-04T06:55:35;15.00;;;5.88;;
27293;SDS011;14785;52.556;13.430;2022-08-04T06:58:02;18.27;;;6.57;;
27293;SDS011;14785;52.556;13.430;2022-08-04T07:00:27;15.83;;;6.87;;
27293;SDS011;14785;52.556;13.430;2022-08-04T07:02:54;20.80;;;6.10;;
27293;SDS011;14785;52.556;13.430;2022-08-04T07:05:21;16.90;;;6.32;;
27293;SDS011;14785;52.556;13.430;2022-08-04T07:07:47;16.02;;;5.68;;
27293;SDS011;14785;52.556;13.430;2022-08-04T07:10:13;16.05;;;6.20;;
27293;SDS011;14785;52.556;13.430;2022-08-04T07:12:41;19.13;;;6.43;;
27293;SDS011;14785;52.556;13.430;2022-08-04T07:15:07;16.60;;;5.85;;
27293;SDS011;14785;52.556;13.430;2022-08-04T07:17:34;8.63;;;4.57;;
27293;SDS011;14785;52.556;13.430;2022-08-04T07:20:03;17.42;;;5.13;;
27293;SDS011;14785;52.556;13.430;2022-08-04T07:22:29;15.35;;;5.05;;
27293;SDS011;14785;52.556;13.430;2022-08-04T07:24:55;11.60;;;4.93;;
27293;SDS011;14785;52.556;13.430;2022-08-04T07:27:22;14.57;;;5.47;;
27293;SDS011;14785;52.556;13.430;2022-08-04T07:29:48;13.00;;;5.25;;
27293;SDS011;14785;52.556;13.430;2022-08-04T07:32:15;18.25;;;5.70;;
27293;SDS011;14785;52.556;13.430;2022-08-04T07:34:42;19.38;;;5.78;;
27293;SDS011;14785;52.556;13.430;2022-08-04T07:37:08;19.33;;;5.68;;
27293;SDS011;14785;52.556;13.430;2022-08-04T07:39:34;13.52;;;5.25;;
27293;SDS011;14785;52.556;13.430;2022-08-04T07:42:01;11.27;;;5.38;;
27293;SDS011;14785;52.556;13.430;2022-08-04T07:44:28;11.38;;;4.75;;
27293;SDS011;14785;52.556;13.430;2022-08-04T07:46:54;12.27;;;4.90;;
27293;SDS011;14785;52.556;13.430;2022-08-04T07:49:20;12.43;;;5.22;;
27293;SDS011;14785;52.556;13.430;2022-08-04T07:51:46;23.95;;;5.28;;
27293;SDS011;14785;52.556;13.430;2022-08-04T07:54:12;12.02;;;5.25;;
27293;SDS011;14785;52.556;13.430;2022-08-04T07:56:39;18.73;;;5.63;;
27293;SDS011;14785;52.556;13.430;2022-08-04T07:59:05;12.18;;;4.80;;
27293;SDS011;14785;52.556;13.430;2022-08-04T08:01:32;17.75;;;4.63;;
27293;SDS011;14785;52.556;13.430;2022-08-04T08:03:59;10.98;;;4.47;;
27293;SDS011;14785;52.556;13.430;2022-08-04T08:08:53;18.88;;;5.47;;
27293;SDS011;14785;52.556;13.430;2022-08-04T08:11:19;14.38;;;4.88;;
27293;SDS011;14785;52.556;13.430;2022-08-04T08:13:44;15.70;;;5.10;;
27293;SDS011;14785;52.556;13.430;2022-08-04T08:16:12;17.13;;;5.40;;
27293;SDS011;14785;52.556;13.430;2022-08-04T08:18:37;11.75;;;5.32;;
27293;SDS011;14785;52.556;13.430;2022-08-04T08:21:03;11.93;;;4.87;;
27293;SDS011;14785;52.556;13.430;2022-08-04T08:23:29;12.10;;;4.72;;
27293;SDS011;14785;52.556;13.430;2022-08-04T08:25:58;12.45;;;5.28;;
27293;SDS011;14785;52.556;13.430;2022-08-04T08:28:23;15.98;;;4.65;;
27293;SDS011;14785;52.556;13.430;2022-08-04T08:30:49;10.77;;;4.45;;
27293;SDS011;14785;52.556;13.430;2022-08-04T08:35:44;12.50;;;4.43;;
27293;SDS011;14785;52.556;13.430;2022-08-04T08:38:14;6.13;;;4.30;;
27293;SDS011;14785;52.556;13.430;2022-08-04T08:43:53;6.82;;;3.78;;
27293;SDS011;14785;52.556;13.430;2022-08-04T08:46:46;13.27;;;4.00;;
27293;SDS011;14785;52.556;13.430;2022-08-04T09:00:37;8.60;;;4.18;;
27293;SDS011;14785;52.556;13.430;2022-08-04T09:09:06;10.85;;;4.60;;
27293;SDS011;14785;52.556;13.430;2022-08-04T09:14:34;11.02;;;4.70;;
27293;SDS011;14785;52.556;13.430;2022-08-04T09:17:13;13.50;;;4.40;;
27293;SDS011;14785;52.556;13.430;2022-08-04T09:19:51;12.15;;;4.32;;
27293;SDS011;14785;52.556;13.430;2022-08-04T09:22:38;7.82;;;3.67;;
27293;SDS011;14785;52.556;13.430;2022-08-04T09:25:25;11.65;;;3.92;;
27293;SDS011;14785;52.556;13.430;2022-08-04T09:27:57;7.30;;;4.35;;
27293;SDS011;14785;52.556;13.430;2022-08-04T09:35:57;10.18;;;3.30;;
27293;SDS011;14785;52.556;13.430;2022-08-04T09:55:16;8.45;;;3.70;;
27293;SDS011;14785;52.556;13.430;2022-08-04T09:57:51;7.13;;;2.72;;
27293;SDS011;14785;52.556;13.430;2022-08-04T10:00:21;8.68;;;2.78;;
27293;SDS011;14785;52.556;13.430;2022-08-04T10:02:57;12.48;;;3.50;;
27293;SDS011;14785;52.556;13.430;2022-08-04T10:05:25;8.25;;;3.40;;
27293;SDS011;14785;52.556;13.430;2022-08-04T10:08:14;6.20;;;2.67;;
27293;SDS011;14785;52.556;13.430;2022-08-04T10:11:11;7.18;;;2.80;;
27293;SDS011;14785;52.556;13.430;2022-08-04T10:19:31;7.25;;;2.67;;
27293;SDS011;14785;52.556;13.430;2022-08-04T10:22:14;5.75;;;3.55;;
27293;SDS011;14785;52.556;13.430;2022-08-04T10:27:29;5.13;;;2.70;;
27293;SDS011;14785;52.556;13.430;2022-08-04T10:30:09;12.68;;;3.40;;
27293;SDS011;14785;52.556;13.430;2022-08-04T10:32:48;7.25;;;3.20;;
27293;SDS011;14785;52.556;13.430;2022-08-04T10:35:17;7.20;;;3.85;;
27293;SDS011;14785;52.556;13.430;2022-08-04T10:40:35;6.20;;;2.60;;
27293;SDS011;14785;52.556;13.430;2022-08-04T10:49:03;8.43;;;2.92;;
27293;SDS011;14785;52.556;13.430;2022-08-04T10:51:45;3.38;;;2.65;;
27293;SDS011;14785;52.556;13.430;2022-08-04T10:57:09;5.38;;;2.65;;
27293;SDS011;14785;52.556;13.430;2022-08-04T10:59:40;3.42;;;2.55;;
27293;SDS011;14785;52.556;13.430;2022-08-04T11:05:17;3.63;;;2.00;;
27293;SDS011;14785;52.556;13.430;2022-08-04T11:08:04;5.85;;;2.47;;
27293;SDS011;14785;52.556;13.430;2022-08-04T11:10:36;3.92;;;2.40;;
27293;SDS011;14785;52.556;13.430;2022-08-04T11:13:10;5.78;;;2.55;;
27293;SDS011;14785;52.556;13.430;2022-08-04T11:15:39;5.68;;;2.72;;
27293;SDS011;14785;52.556;13.430;2022-08-04T11:18:12;7.55;;;2.83;;
27293;SDS011;14785;52.556;13.430;2022-08-04T11:20:54;3.83;;;2.70;;
27293;SDS011;14785;52.556;13.430;2022-08-04T11:23:27;2.95;;;2.60;;
27293;SDS011;14785;52.556;13.430;2022-08-04T11:26:08;8.40;;;2.80;;
27293;SDS011;14785;52.556;13.430;2022-08-04T11:28:48;6.95;;;2.42;;
27293;SDS011;14785;52.556;13.430;2022-08-04T11:31:24;6.00;;;2.45;;
27293;SDS011;14785;52.556;13.430;2022-08-04T11:34:03;3.25;;;2.25;;
27293;SDS011;14785;52.556;13.430;2022-08-04T11:36:40;4.53;;;2.22;;
27293;SDS011;14785;52.556;13.430;2022-08-04T11:44:48;4.10;;;2.15;;
27293;SDS011;14785;52.556;13.430;2022-08-04T11:47:21;6.00;;;2.35;;
27293;SDS011;14785;52.556;13.430;2022-08-04T11:52:42;3.15;;;2.20;;
27293;SDS011;14785;52.556;13.430;2022-08-04T11:55:10;3.40;;;2.30;;
27293;SDS011;14785;52.556;13.430;2022-08-04T11:57:38;4.53;;;2.50;;
27293;SDS011;14785;52.556;13.430;2022-08-04T12:00:05;5.82;;;2.80;;
27293;SDS011;14785;52.556;13.430;2022-08-04T12:05:26;4.70;;;2.45;;
27293;SDS011;14785;52.556;13.430;2022-08-04T12:16:17;6.10;;;5.00;;
27293;SDS011;14785;52.556;13.430;2022-08-04T12:18:53;4.30;;;2.28;;
27293;SDS011;14785;52.556;13.430;2022-08-04T12:21:24;5.53;;;2.33;;
27293;SDS011;14785;52.556;13.430;2022-08-04T12:23:57;7.28;;;2.50;;
27293;SDS011;14785;52.556;13.430;2022-08-04T12:26:41;3.35;;;2.22;;
27293;SDS011;14785;52.556;13.430;2022-08-04T12:29:13;6.82;;;2.47;;
27293;SDS011;14785;52.556;13.430;2022-08-04T12:31:46;8.20;;;2.50;;
27293;SDS011;14785;52.556;13.430;2022-08-04T12:34:26;9.65;;;2.60;;
27293;SDS011;14785;52.556;13.430;2022-08-04T12:37:01;6.30;;;2.20;;
27293;SDS011;14785;52.556;13.430;2022-08-04T12:42:16;6.60;;;2.38;;
27293;SDS011;14785;52.556;13.430;2022-08-04T12:44:48;5.10;;;2.28;;
27293;SDS011;14785;52.556;13.430;2022-08-04T12:47:20;9.38;;;2.88;;
27293;SDS011;14785;52.556;13.430;2022-08-04T12:49:48;6.40;;;2.45;;
27293;SDS011;14785;52.556;13.430;2022-08-04T12:52:15;4.82;;;2.53;;
27293;SDS011;14785;52.556;13.430;2022-08-04T12:54:44;4.47;;;2.53;;
27293;SDS011;14785;52.556;13.430;2022-08-04T12:57:15;7.43;;;2.65;;
27293;SDS011;14785;52.556;13.430;2022-08-04T12:59:42;3.75;;;2.45;;
27293;SDS011;14785;52.556;13.430;2022-08-04T13:02:12;7.45;;;2.55;;
27293;SDS011;14785;52.556;13.430;2022-08-04T13:05:02;6.60;;;2.30;;
27293;SDS011;14785;52.556;13.430;2022-08-04T13:07:35;8.77;;;2.30;;
27293;SDS011;14785;52.556;13.430;2022-08-04T13:10:10;6.55;;;2.30;;
27293;SDS011;14785;52.556;13.430;2022-08-04T13:12:37;7.15;;;2.08;;
27293;SDS011;14785;52.556;13.430;2022-08-04T13:15:10;5.70;;;2.53;;
27293;SDS011;14785;52.556;13.430;2022-08-04T13:17:45;2.80;;;2.23;;
27293;SDS011;14785;52.556;13.430;2022-08-04T13:20:28;6.05;;;2.20;;
27293;SDS011;14785;52.556;13.430;2022-08-04T13:22:59;5.72;;;2.28;;
27293;SDS011;14785;52.556;13.430;2022-08-04T13:25:29;3.90;;;2.33;;
27293;SDS011;14785;52.556;13.430;2022-08-04T13:27:56;6.35;;;2.20;;
27293;SDS011;14785;52.556;13.430;2022-08-04T13:30:24;9.63;;;2.55;;
27293;SDS011;14785;52.556;13.430;2022-08-04T13:32:53;5.47;;;2.30;;
27293;SDS011;14785;52.556;13.430;2022-08-04T13:35:22;5.35;;;2.60;;
27293;SDS011;14785;52.556;13.430;2022-08-04T13:37:49;5.15;;;2.00;;
27293;SDS011;14785;52.556;13.430;2022-08-04T13:40:16;3.17;;;2.22;;
27293;SDS011;14785;52.556;13.430;2022-08-04T13:42:47;5.90;;;2.88;;
27293;SDS011;14785;52.556;13.430;2022-08-04T13:45:20;3.72;;;2.65;;
27293;SDS011;14785;52.556;13.430;2022-08-04T13:47:48;5.40;;;1.90;;
27293;SDS011;14785;52.556;13.430;2022-08-04T13:50:19;5.70;;;1.80;;
27293;SDS011;14785;52.556;13.430;2022-08-04T13:52:50;6.10;;;2.00;;
27293;SDS011;14785;52.556;13.430;2022-08-04T13:55:25;6.88;;;1.80;;
27293;SDS011;14785;52.556;13.430;2022-08-04T13:58:24;5.30;;;2.10;;
27293;SDS011;14785;52.556;13.430;2022-08-04T14:03:24;6.72;;;2.00;;
27293;SDS011;14785;52.556;13.430;2022-08-04T14:06:20;4.40;;;1.92;;
27293;SDS011;14785;52.556;13.430;2022-08-04T14:11:29;5.93;;;1.95;;
27293;SDS011;14785;52.556;13.430;2022-08-04T14:13:57;5.18;;;1.83;;
27293;SDS011;14785;52.556;13.430;2022-08-04T14:16:23;5.93;;;2.05;;
27293;SDS011;14785;52.556;13.430;2022-08-04T14:18:58;1.80;;;1.70;;
27293;SDS011;14785;52.556;13.430;2022-08-04T14:21:25;1.85;;;1.70;;
27293;SDS011;14785;52.556;13.430;2022-08-04T14:23:51;3.30;;;1.60;;
27293;SDS011;14785;52.556;13.430;2022-08-04T14:29:06;5.88;;;1.50;;
27293;SDS011;14785;52.556;13.430;2022-08-04T14:31:36;3.75;;;1.90;;
27293;SDS011;14785;52.556;13.430;2022-08-04T14:34:02;5.20;;;1.77;;
27293;SDS011;14785;52.556;13.430;2022-08-04T14:36:27;5.60;;;2.00;;
27293;SDS011;14785;52.556;13.430;2022-08-04T14:41:30;2.42;;;2.10;;
27293;SDS011;14785;52.556;13.430;2022-08-04T14:44:12;3.33;;;1.73;;
27293;SDS011;14785;52.556;13.430;2022-08-04T14:46:53;5.05;;;1.80;;
27293;SDS011;14785;52.556;13.430;2022-08-04T14:49:20;3.70;;;1.50;;
27293;SDS011;14785;52.556;13.430;2022-08-04T14:51:59;4.30;;;1.70;;
27293;SDS011;14785;52.556;13.430;2022-08-04T14:54:27;3.17;;;1.58;;
27293;SDS011;14785;52.556;13.430;2022-08-04T14:56:56;4.30;;;2.13;;
27293;SDS011;14785;52.556;13.430;2022-08-04T14:59:25;5.20;;;1.80;;
27293;SDS011;14785;52.556;13.430;2022-08-04T15:01:51;2.75;;;1.83;;
27293;SDS011;14785;52.556;13.430;2022-08-04T15:04:18;4.50;;;1.95;;
27293;SDS011;14785;52.556;13.430;2022-08-04T15:06:48;8.00;;;1.77;;
27293;SDS011;14785;52.556;13.430;2022-08-04T15:09:14;3.25;;;1.30;;
27293;SDS011;14785;52.556;13.430;2022-08-04T15:11:40;4.50;;;1.60;;
27293;SDS011;14785;52.556;13.430;2022-08-04T15:14:06;3.45;;;1.70;;
27293;SDS011;14785;52.556;13.430;2022-08-04T15:16:32;4.88;;;1.85;;
27293;SDS011;14785;52.556;13.430;2022-08-04T15:18:58;2.78;;;1.63;;
27293;SDS011;14785;52.556;13.430;2022-08-04T15:21:25;3.45;;;1.65;;
27293;SDS011;14785;52.556;13.430;2022-08-04T15:23:55;5.55;;;2.08;;
27293;SDS011;14785;52.556;13.430;2022-08-04T15:26:22;9.43;;;2.17;;
27293;SDS011;14785;52.556;13.430;2022-08-04T15:28:53;2.22;;;1.80;;
27293;SDS011;14785;52.556;13.430;2022-08-04T15:31:24;4.65;;;1.88;;
27293;SDS011;14785;52.556;13.430;2022-08-04T15:33:53;2.63;;;1.60;;
27293;SDS011;14785;52.556;13.430;2022-08-04T15:36:37;4.25;;;1.85;;
27293;SDS011;14785;52.556;13.430;2022-08-04T15:44:27;4.45;;;1.92;;
27293;SDS011;14785;52.556;13.430;2022-08-04T15:47:09;3.22;;;1.80;;
27293;SDS011;14785;52.556;13.430;2022-08-04T15:49:36;2.75;;;2.10;;
27293;SDS011;14785;52.556;13.430;2022-08-04T15:52:04;3.42;;;1.85;;
27293;SDS011;14785;52.556;13.430;2022-08-04T15:54:31;4.53;;;1.80;;
27293;SDS011;14785;52.556;13.430;2022-08-04T15:56:57;5.78;;;2.20;;
27293;SDS011;14785;52.556;13.430;2022-08-04T16:12:54;2.72;;;2.03;;
27293;SDS011;14785;52.556;13.430;2022-08-04T16:18:02;5.38;;;2.22;;
27293;SDS011;14785;52.556;13.430;2022-08-04T16:20:28;3.10;;;1.92;;
27293;SDS011;14785;52.556;13.430;2022-08-04T16:22:56;5.78;;;1.83;;
27293;SDS011;14785;52.556;13.430;2022-08-04T16:31:00;12.88;;;6.88;;
27293;SDS011;14785;52.556;13.430;2022-08-04T16:33:29;5.43;;;1.95;;
27293;SDS011;14785;52.556;13.430;2022-08-04T16:35:56;7.18;;;2.25;;
27293;SDS011;14785;52.556;13.430;2022-08-04T16:38:23;10.93;;;2.20;;
27293;SDS011;14785;52.556;13.430;2022-08-04T16:40:53;4.43;;;2.38;;
27293;SDS011;14785;52.556;13.430;2022-08-04T16:43:21;5.57;;;2.25;;
27293;SDS011;14785;52.556;13.430;2022-08-04T16:48:33;3.75;;;2.45;;
27293;SDS011;14785;52.556;13.430;2022-08-04T16:51:06;1.95;;;1.73;;
27293;SDS011;14785;52.556;13.430;2022-08-04T16:53:39;5.15;;;2.33;;
27293;SDS011;14785;52.556;13.430;2022-08-04T16:56:08;52.58;;;34.67;;
27293;SDS011;14785;52.556;13.430;2022-08-04T16:58:38;38.80;;;29.10;;
27293;SDS011;14785;52.556;13.430;2022-08-04T17:01:08;31.85;;;20.95;;
27293;SDS011;14785;52.556;13.430;2022-08-04T17:03:36;9.50;;;6.22;;
27293;SDS011;14785;52.556;13.430;2022-08-04T17:06:12;7.32;;;5.18;;
27293;SDS011;14785;52.556;13.430;2022-08-04T17:08:41;3.22;;;1.80;;
27293;SDS011;14785;52.556;13.430;2022-08-04T17:11:12;21.02;;;12.88;;
27293;SDS011;14785;52.556;13.430;2022-08-04T17:13:40;9.10;;;6.47;;
27293;SDS011;14785;52.556;13.430;2022-08-04T17:16:09;5.55;;;3.80;;
27293;SDS011;14785;52.556;13.430;2022-08-04T17:18:37;11.10;;;7.55;;
27293;SDS011;14785;52.556;13.430;2022-08-04T17:21:05;10.55;;;5.97;;
27293;SDS011;14785;52.556;13.430;2022-08-04T17:23:40;12.13;;;9.93;;
27293;SDS011;14785;52.556;13.430;2022-08-04T17:26:11;4.03;;;2.20;;
27293;SDS011;14785;52.556;13.430;2022-08-04T17:28:40;6.00;;;2.33;;
27293;SDS011;14785;52.556;13.430;2022-08-04T17:31:10;6.47;;;2.28;;
27293;SDS011;14785;52.556;13.430;2022-08-04T17:33:36;7.65;;;3.53;;
27293;SDS011;14785;52.556;13.430;2022-08-04T17:36:03;4.65;;;2.10;;
27293;SDS011;14785;52.556;13.430;2022-08-04T17:38:34;8.40;;;2.60;;
27293;SDS011;14785;52.556;13.430;2022-08-04T17:41:03;5.43;;;2.65;;
27293;SDS011;14785;52.556;13.430;2022-08-04T17:46:24;5.15;;;3.25;;
27293;SDS011;14785;52.556;13.430;2022-08-04T17:51:53;4.03;;;2.58;;
27293;SDS011;14785;52.556;13.430;2022-08-04T17:56:52;5.15;;;2.35;;
27293;SDS011;14785;52.556;13.430;2022-08-04T18:06:48;6.05;;;2.40;;
27293;SDS011;14785;52.556;13.430;2022-08-04T18:09:20;5.13;;;2.80;;
27293;SDS011;14785;52.556;13.430;2022-08-04T18:11:50;6.75;;;3.47;;
27293;SDS011;14785;52.556;13.430;2022-08-04T18:14:18;17.58;;;9.65;;
27293;SDS011;14785;52.556;13.430;2022-08-04T18:16:44;33.97;;;24.25;;
27293;SDS011;14785;52.556;13.430;2022-08-04T18:19:10;21.27;;;15.32;;
27293;SDS011;14785;52.556;13.430;2022-08-04T18:21:37;15.88;;;11.30;;
27293;SDS011;14785;52.556;13.430;2022-08-04T18:24:02;15.80;;;12.63;;
27293;SDS011;14785;52.556;13.430;2022-08-04T18:26:28;13.98;;;9.82;;
27293;SDS011;14785;52.556;13.430;2022-08-04T18:28:53;12.77;;;8.15;;
27293;SDS011;14785;52.556;13.430;2022-08-04T18:31:19;11.98;;;9.68;;
27293;SDS011;14785;52.556;13.430;2022-08-04T18:33:44;12.77;;;8.23;;
27293;SDS011;14785;52.556;13.430;2022-08-04T18:36:09;6.97;;;5.80;;
27293;SDS011;14785;52.556;13.430;2022-08-04T18:38:35;10.63;;;7.13;;
27293;SDS011;14785;52.556;13.430;2022-08-04T18:41:01;19.02;;;6.50;;
27293;SDS011;14785;52.556;13.430;2022-08-04T18:43:26;17.67;;;8.70;;
27293;SDS011;14785;52.556;13.430;2022-08-04T18:45:51;11.07;;;6.90;;
27293;SDS011;14785;52.556;13.430;2022-08-04T18:48:17;8.53;;;4.90;;
27293;SDS011;14785;52.556;13.430;2022-08-04T18:50:42;6.15;;;5.28;;
27293;SDS011;14785;52.556;13.430;2022-08-04T18:53:07;11.00;;;6.53;;
27293;SDS011;14785;52.556;13.430;2022-08-04T18:55:33;11.27;;;6.50;;
27293;SDS011;14785;52.556;13.430;2022-08-04T18:57:58;11.40;;;5.50;;
27293;SDS011;14785;52.556;13.430;2022-08-04T19:02:48;17.03;;;12.60;;
27293;SDS011;14785;52.556;13.430;2022-08-04T19:05:14;8.43;;;6.95;;
27293;SDS011;14785;52.556;13.430;2022-08-04T19:07:39;14.60;;;5.63;;
27293;SDS011;14785;52.556;13.430;2022-08-04T19:10:05;8.40;;;4.53;;
27293;SDS011;14785;52.556;13.430;2022-08-04T19:12:30;10.23;;;6.53;;
27293;SDS011;14785;52.556;13.430;2022-08-04T19:14:56;7.72;;;5.15;;
27293;SDS011;14785;52.556;13.430;2022-08-04T19:17:22;7.78;;;4.93;;
27293;SDS011;14785;52.556;13.430;2022-08-04T19:19:47;6.67;;;4.23;;
27293;SDS011;14785;52.556;13.430;2022-08-04T19:22:12;7.07;;;4.40;;
27293;SDS011;14785;52.556;13.430;2022-08-04T19:24:38;8.43;;;3.07;;
27293;SDS011;14785;52.556;13.430;2022-08-04T19:27:04;6.43;;;4.23;;
27293;SDS011;14785;52.556;13.430;2022-08-04T19:29:31;9.45;;;4.25;;
27293;SDS011;14785;52.556;13.430;2022-08-04T19:31:56;7.38;;;4.32;;
27293;SDS011;14785;52.556;13.430;2022-08-04T19:34:22;5.13;;;3.67;;
27293;SDS011;14785;52.556;13.430;2022-08-04T19:36:47;6.53;;;4.30;;
27293;SDS011;14785;52.556;13.430;2022-08-04T19:39:12;9.63;;;4.72;;